Time;durP1;ratioP1;P1;durP2;ratioP2;P2;SDS_P1;SDS_P2;PMS_P1;PMS_P2;Temp;Humidity;BMP_temperature;BMP_pressure;BME280_temperature;BME280_humidity;BME280_pressure;Samples;Min_cycle;Max_cycle;Signal;HPM_P1;HPM_P2
2022/09/08 00:00:11;;;;;;;5.78;3.90;;;;;;;19.38;62.09;100633.44;5042817;28;20235;-61
2022/09/08 00:02:38;;;;;;;11.85;4.45;;;;;;;19.31;62.51;100643.44;5040774;28;20224;-61
2022/09/08 00:05:06;;;;;;;6.32;3.90;;;;;;;19.17;61.47;100648.44;5034946;28;20733;-61
2022/09/08 00:07:35;;;;;;;6.10;4.50;;;;;;;19.23;61.89;100645.53;5040374;28;20227;-61
2022/09/08 00:10:02;;;;;;;4.20;3.45;;;;;;;19.14;61.64;100645.88;5036480;28;20306;-61
2022/09/08 00:12:29;;;;;;;7.68;4.40;;;;;;;19.17;64.00;100648.44;5038308;28;20238;-61
2022/09/08 00:14:56;;;;;;;6.38;3.80;;;;;;;19.05;64.10;100637.31;5040589;28;20254;-60
2022/09/08 00:17:23;;;;;;;4.95;4.43;;;;;;;19.13;63.31;100644.13;5031041;28;20232;-61
2022/09/08 00:19:49;;;;;;;7.13;4.50;;;;;;;18.97;61.27;100646.50;5030458;28;20238;-62
2022/09/08 00:22:16;;;;;;;4.50;3.97;;;;;;;19.05;61.71;100641.75;5030670;28;20239;-61
2022/09/08 00:24:44;;;;;;;5.70;4.47;;;;;;;19.11;64.21;100635.34;5032844;28;20228;-62
2022/09/08 00:27:10;;;;;;;5.93;3.67;;;;;;;19.01;63.48;100627.72;5033305;28;20273;-61
2022/09/08 00:29:37;;;;;;;4.70;4.30;;;;;;;19.16;62.88;100630.72;5042521;28;20228;-61
2022/09/08 00:32:03;;;;;;;5.05;3.72;;;;;;;18.95;61.77;100635.03;5041750;28;20341;-61
2022/09/08 00:34:30;;;;;;;4.75;3.53;;;;;;;18.97;62.42;100627.88;5039648;28;20256;-61
2022/09/08 00:36:58;;;;;;;8.65;4.50;;;;;;;18.93;61.67;100627.13;5037095;28;20239;-62
2022/09/08 00:39:25;;;;;;;4.40;4.00;;;;;;;19.03;62.98;100633.84;5035111;28;20554;-62
2022/09/08 00:41:52;;;;;;;5.93;3.80;;;;;;;19.00;61.48;100638.41;5036505;28;20226;-62
2022/09/08 00:44:40;;;;;;;4.45;4.05;;;;;;;18.99;60.38;100637.56;5036860;28;20248;-61
2022/09/08 00:47:13;;;;;;;6.53;3.97;;;;;;;18.97;63.41;100644.72;5040957;28;20238;-60
2022/09/08 00:49:39;;;;;;;6.40;4.30;;;;;;;19.01;60.75;100634.81;5041983;28;20274;-61
2022/09/08 00:52:06;;;;;;;6.97;3.55;;;;;;;18.78;61.77;100633.03;5039406;28;20239;-61
2022/09/08 00:54:33;;;;;;;4.13;3.63;;;;;;;18.87;61.67;100622.03;5043726;28;20239;-61
2022/09/08 00:57:01;;;;;;;4.82;4.22;;;;;;;18.87;60.60;100619.38;5047357;28;20248;-61
2022/09/08 00:59:27;;;;;;;5.60;4.78;;;;;;;18.92;60.78;100619.19;5039595;28;20263;-61
2022/09/08 01:01:54;;;;;;;5.88;3.67;;;;;;;18.69;61.86;100612.91;5041077;28;20231;-62
2022/09/08 01:04:21;;;;;;;4.43;3.83;;;;;;;18.71;62.47;100620.81;5040882;28;20239;-61
2022/09/08 01:12:44;;;;;;;6.35;4.07;;;;;;;18.66;62.02;100612.16;5041144;28;20890;-61
2022/09/08 01:15:11;;;;;;;7.60;4.03;;;;;;;18.83;61.06;100605.31;5034969;28;20235;-60
2022/09/08 01:17:38;;;;;;;4.32;3.88;;;;;;;18.84;62.97;100608.84;5045253;28;20232;-61
2022/09/08 01:20:07;;;;;;;5.72;3.65;;;;;;;18.60;60.91;100603.50;5035244;28;20240;-62
2022/09/08 01:22:47;;;;;;;5.75;3.92;;;;;;;18.79;61.47;100610.81;5041478;28;20232;-61
2022/09/08 01:25:26;;;;;;;8.07;4.10;;;;;;;18.58;60.33;100617.75;5045994;28;20247;-61
2022/09/08 01:27:59;;;;;;;3.88;3.40;;;;;;;18.75;61.07;100617.19;5030627;28;20250;-62
2022/09/08 01:30:25;;;;;;;5.55;3.35;;;;;;;18.50;60.25;100612.72;5032854;28;20250;-61
2022/09/08 01:32:52;;;;;;;4.95;3.80;;;;;;;18.52;61.49;100610.84;5025638;28;20235;-62
2022/09/08 01:35:29;;;;;;;5.00;4.13;;;;;;;18.64;61.85;100614.00;5037379;28;20310;-61
2022/09/08 01:37:56;;;;;;;4.20;3.25;;;;;;;18.61;62.99;100615.00;5041580;28;20239;-59
2022/09/08 01:40:22;;;;;;;4.38;3.80;;;;;;;18.58;61.86;100618.63;5039237;28;20323;-61
2022/09/08 01:42:49;;;;;;;5.97;4.00;;;;;;;18.55;62.53;100621.38;5043249;28;20732;-62
2022/09/08 01:45:17;;;;;;;6.15;3.85;;;;;;;18.57;62.82;100616.03;5038486;28;20703;-60
2022/09/08 01:47:43;;;;;;;7.68;3.00;;;;;;;18.45;63.57;100625.28;5030933;28;20698;-61
2022/09/08 01:50:11;;;;;;;5.13;4.38;;;;;;;18.41;63.41;100617.50;5038544;28;20228;-62
2022/09/08 01:52:37;;;;;;;5.65;4.40;;;;;;;18.43;63.28;100615.63;5041797;28;20698;-61
2022/09/08 01:55:04;;;;;;;7.03;4.28;;;;;;;18.38;64.01;100613.13;5035882;28;20714;-61
2022/09/08 01:57:31;;;;;;;8.65;4.38;;;;;;;18.39;63.39;100604.22;5042164;28;20228;-61
2022/09/08 01:59:57;;;;;;;5.38;3.97;;;;;;;18.35;64.26;100597.28;5038123;28;20982;-61
2022/09/08 02:02:25;;;;;;;3.42;3.13;;;;;;;18.34;64.28;100591.13;5036187;28;20227;-61
2022/09/08 02:04:52;;;;;;;3.60;3.30;;;;;;;18.30;61.99;100593.94;5036921;28;20235;-61
2022/09/08 02:07:19;;;;;;;4.25;3.85;;;;;;;18.26;61.57;100587.00;5042807;28;20239;-61
2022/09/08 02:09:45;;;;;;;8.68;3.80;;;;;;;18.26;62.57;100579.91;5039161;28;20352;-61
2022/09/08 02:12:12;;;;;;;4.57;3.95;;;;;;;18.23;62.32;100576.47;5033789;28;20232;-59
2022/09/08 02:14:39;;;;;;;8.05;3.20;;;;;;;18.15;62.06;100589.13;5030674;28;20937;-61
2022/09/08 02:17:05;;;;;;;5.13;3.22;;;;;;;18.13;61.83;100592.72;5042468;28;20728;-60
2022/09/08 02:19:33;;;;;;;3.88;3.03;;;;;;;18.16;62.45;100596.22;5037038;28;20232;-61
2022/09/08 02:22:00;;;;;;;5.68;3.67;;;;;;;18.11;63.23;100599.91;5035253;28;20232;-61
2022/09/08 02:24:27;;;;;;;7.93;3.10;;;;;;;18.02;62.01;100600.22;5041716;28;20259;-60
2022/09/08 02:26:53;;;;;;;3.50;3.10;;;;;;;18.01;63.01;100597.63;5041822;28;20871;-61
2022/09/08 02:29:20;;;;;;;5.70;3.17;;;;;;;18.06;61.97;100596.53;5040766;28;20236;-60
2022/09/08 02:31:46;;;;;;;5.05;3.30;;;;;;;18.00;63.24;100582.56;5044905;28;20232;-61
2022/09/08 02:34:13;;;;;;;5.30;3.38;;;;;;;18.04;62.34;100587.75;5034640;28;20594;-61
2022/09/08 02:36:41;;;;;;;5.50;3.75;;;;;;;17.92;60.83;100585.50;5040756;28;20233;-61
2022/09/08 02:39:07;;;;;;;4.05;2.90;;;;;;;17.86;62.50;100586.56;5037383;28;22027;-61
2022/09/08 02:41:34;;;;;;;5.30;3.05;;;;;;;17.93;64.54;100578.38;5042184;28;20236;-64
2022/09/08 02:44:01;;;;;;;4.13;3.33;;;;;;;17.83;62.00;100578.72;5039364;28;20238;-62
2022/09/08 02:46:27;;;;;;;3.75;3.08;;;;;;;17.83;61.60;100577.81;5044040;28;20701;-63
2022/09/08 02:48:54;;;;;;;4.15;3.17;;;;;;;17.78;61.51;100575.34;5038305;28;20228;-63
2022/09/08 02:51:20;;;;;;;7.97;3.28;;;;;;;17.75;61.57;100574.53;5034029;28;20232;-61
2022/09/08 02:53:48;;;;;;;3.88;3.47;;;;;;;17.72;62.54;100569.31;5036963;28;20235;-62
2022/09/08 02:56:15;;;;;;;5.90;3.95;;;;;;;17.76;61.50;100573.63;5040762;28;20252;-63
2022/09/08 02:58:41;;;;;;;5.28;3.80;;;;;;;17.69;63.87;100574.72;5044086;28;20235;-61
2022/09/08 03:01:08;;;;;;;7.78;3.83;;;;;;;17.60;61.65;100566.16;5034850;28;20278;-62
2022/09/08 03:03:34;;;;;;;4.22;3.03;;;;;;;17.63;62.59;100567.84;5040343;28;20243;-64
2022/09/08 03:06:01;;;;;;;4.43;3.67;;;;;;;17.65;60.95;100569.53;5040070;28;20239;-62
2022/09/08 03:08:28;;;;;;;5.28;3.17;;;;;;;17.55;62.23;100572.53;5042151;28;23030;-63
2022/09/08 03:10:55;;;;;;;4.22;3.67;;;;;;;17.54;61.79;100566.34;5043810;28;20236;-61
2022/09/08 03:13:22;;;;;;;3.60;3.30;;;;;;;17.49;61.37;100552.38;5033605;28;20228;-62
2022/09/08 03:15:50;;;;;;;4.32;3.60;;;;;;;17.50;61.72;100547.91;5042007;28;20224;-62
2022/09/08 03:18:17;;;;;;;5.55;3.08;;;;;;;17.44;62.00;100551.63;5043680;28;20239;-64
2022/09/08 03:20:45;;;;;;;4.70;2.92;;;;;;;17.43;63.44;100552.56;5041549;28;20231;-61
2022/09/08 03:23:16;;;;;;;4.20;3.10;;;;;;;17.38;61.25;100546.53;5037427;28;20705;-61
2022/09/08 03:25:44;;;;;;;4.20;3.10;;;;;;;17.37;61.97;100548.34;5042811;28;20359;-61
2022/09/08 03:28:17;;;;;;;5.18;3.78;;;;;;;17.36;62.70;100535.97;5041276;28;20323;-61
2022/09/08 03:30:44;;;;;;;6.20;3.72;;;;;;;17.38;64.03;100520.00;5036717;28;20223;-62
2022/09/08 03:33:10;;;;;;;4.95;3.80;;;;;;;17.37;63.17;100520.91;5044023;28;20232;-61
2022/09/08 03:35:37;;;;;;;6.43;2.95;;;;;;;17.42;60.52;100524.28;5044381;28;20239;-62
2022/09/08 03:38:03;;;;;;;4.88;3.92;;;;;;;17.31;60.95;100513.16;5040445;28;20235;-61
2022/09/08 03:40:30;;;;;;;2.85;2.60;;;;;;;17.28;60.61;100521.22;5038597;28;20285;-63
2022/09/08 03:42:57;;;;;;;7.05;3.55;;;;;;;17.32;61.20;100528.16;5034801;28;20228;-61
2022/09/08 03:45:25;;;;;;;4.55;3.30;;;;;;;17.31;61.10;100537.03;5032321;28;20239;-62
2022/09/08 03:47:51;;;;;;;6.53;3.17;;;;;;;17.36;61.55;100535.09;5033878;28;20285;-61
2022/09/08 03:50:19;;;;;;;4.85;3.08;;;;;;;17.44;60.72;100535.72;5040502;28;20239;-62
2022/09/08 03:52:45;;;;;;;3.10;2.80;;;;;;;17.53;60.85;100543.38;5045121;28;20228;-61
2022/09/08 03:55:12;;;;;;;4.13;2.75;;;;;;;17.53;61.43;100550.47;5045979;28;20236;-62
2022/09/08 03:57:39;;;;;;;3.22;2.92;;;;;;;17.47;61.21;100542.72;5035807;28;20710;-62
2022/09/08 04:00:09;;;;;;;5.78;3.20;;;;;;;17.32;60.15;100539.63;5039786;28;20633;-62
2022/09/08 04:02:37;;;;;;;6.72;3.25;;;;;;;17.20;61.14;100526.78;5040021;28;20315;-61
2022/09/08 04:05:04;;;;;;;5.85;3.17;;;;;;;17.27;63.66;100524.75;5035092;28;20240;-62
2022/09/08 04:07:31;;;;;;;5.28;3.00;;;;;;;17.39;62.07;100519.06;5041294;28;20721;-62
2022/09/08 04:09:58;;;;;;;4.75;3.00;;;;;;;17.50;60.37;100511.63;5034020;28;21820;-61
2022/09/08 04:12:25;;;;;;;6.50;3.58;;;;;;;17.38;61.85;100515.56;5032108;28;20224;-60
2022/09/08 04:14:52;;;;;;;4.78;3.25;;;;;;;17.42;60.75;100511.88;5039881;28;20239;-62
2022/09/08 04:17:20;;;;;;;5.72;3.83;;;;;;;17.39;59.87;100503.16;5040285;28;20252;-62
2022/09/08 04:19:50;;;;;;;4.57;2.95;;;;;;;17.37;64.03;100504.97;5035520;28;20703;-60
2022/09/08 04:22:17;;;;;;;4.45;3.30;;;;;;;17.35;61.44;100505.03;5039450;28;20235;-60
2022/09/08 04:24:44;;;;;;;7.38;3.95;;;;;;;17.37;61.79;100504.97;5041525;28;20230;-61
2022/09/08 04:27:10;;;;;;;5.80;3.78;;;;;;;17.35;61.49;100506.84;5042257;28;20817;-62
2022/09/08 04:29:37;;;;;;;5.70;3.17;;;;;;;17.35;59.96;100499.72;5037691;28;20227;-61
2022/09/08 04:32:03;;;;;;;8.88;3.60;;;;;;;17.18;59.63;100510.88;5046398;28;20239;-61
2022/09/08 04:34:30;;;;;;;5.97;3.35;;;;;;;17.06;60.55;100505.97;5044199;28;20240;-60
2022/09/08 04:36:58;;;;;;;5.55;3.53;;;;;;;17.12;59.89;100494.28;5041117;28;20228;-61
2022/09/08 04:39:24;;;;;;;5.88;3.88;;;;;;;17.08;60.95;100496.19;5042220;28;20225;-61
2022/09/08 04:41:51;;;;;;;5.03;3.63;;;;;;;17.09;61.15;100491.72;5045598;28;20240;-61
2022/09/08 04:44:17;;;;;;;3.72;3.28;;;;;;;17.07;59.69;100494.44;5036488;28;20273;-61
2022/09/08 04:46:44;;;;;;;5.47;3.30;;;;;;;17.11;60.38;100492.56;5043528;28;20239;-61
2022/09/08 04:49:10;;;;;;;3.33;2.95;;;;;;;17.10;59.43;100490.84;5044994;28;20232;-62
2022/09/08 04:51:37;;;;;;;3.17;2.85;;;;;;;17.20;59.64;100488.72;5043730;28;20242;-62
2022/09/08 04:54:05;;;;;;;4.70;3.70;;;;;;;17.25;57.96;100489.47;5037693;28;20234;-62
2022/09/08 04:56:32;;;;;;;3.78;3.42;;;;;;;17.27;59.24;100492.94;5040977;28;20291;-62
2022/09/08 04:59:00;;;;;;;3.92;3.40;;;;;;;17.24;59.94;100499.22;5051472;28;20243;-61
2022/09/08 05:01:28;;;;;;;7.95;3.60;;;;;;;17.28;59.08;100494.69;5046469;28;20674;-60
2022/09/08 05:03:57;;;;;;;4.85;3.40;;;;;;;17.29;59.36;100497.28;5045813;28;20239;-62
2022/09/08 05:06:24;;;;;;;8.85;4.32;;;;;;;17.23;60.04;100493.94;5043112;28;20339;-61
2022/09/08 05:08:52;;;;;;;5.65;3.88;;;;;;;17.12;58.87;100499.59;5045674;28;20700;-60
2022/09/08 05:11:21;;;;;;;7.00;4.05;;;;;;;17.37;60.21;100497.00;5029290;28;20250;-61
2022/09/08 05:13:49;;;;;;;8.13;3.90;;;;;;;17.30;59.32;100500.78;5041614;28;20352;-62
2022/09/08 05:16:17;;;;;;;7.15;3.53;;;;;;;17.30;59.88;100509.59;5036615;28;20263;-61
2022/09/08 05:18:47;;;;;;;9.65;3.92;;;;;;;17.28;58.76;100506.16;5045653;28;20230;-61
2022/09/08 05:21:14;;;;;;;7.82;4.53;;;;;;;17.20;57.80;100508.19;5043967;28;20294;-62
2022/09/08 05:23:40;;;;;;;7.43;3.67;;;;;;;16.97;60.25;100506.25;5045413;28;20246;-61
2022/09/08 05:26:08;;;;;;;5.22;4.32;;;;;;;17.27;60.63;100503.53;5041746;28;20240;-61
2022/09/08 05:28:38;;;;;;;4.63;3.80;;;;;;;17.23;58.58;100501.91;5032013;28;20244;-61
2022/09/08 05:31:05;;;;;;;6.97;3.60;;;;;;;17.14;59.29;100498.63;5045050;28;20576;-61
2022/09/08 05:33:33;;;;;;;7.53;3.80;;;;;;;17.10;58.82;100497.00;5041301;28;20236;-61
2022/09/08 05:35:59;;;;;;;9.60;3.35;;;;;;;17.16;60.02;100496.81;5045288;28;20302;-61
2022/09/08 05:38:26;;;;;;;4.80;3.47;;;;;;;17.23;58.26;100500.13;5038674;28;20241;-61
2022/09/08 05:40:52;;;;;;;10.27;4.40;;;;;;;17.14;58.85;100509.25;5041312;28;20789;-62
2022/09/08 05:43:19;;;;;;;5.13;4.15;;;;;;;17.20;58.53;100507.31;5036356;28;20238;-61
2022/09/08 05:45:48;;;;;;;6.55;4.53;;;;;;;16.99;58.42;100503.53;5038649;28;20282;-61
2022/09/08 05:48:15;;;;;;;5.20;4.20;;;;;;;17.07;59.36;100506.84;5037606;28;20235;-61
2022/09/08 05:50:42;;;;;;;6.63;4.10;;;;;;;17.13;59.82;100502.22;5040595;28;20951;-60
2022/09/08 05:53:09;;;;;;;6.55;4.13;;;;;;;17.18;60.17;100494.97;5041451;28;20732;-62
2022/09/08 05:55:36;;;;;;;6.53;3.78;;;;;;;17.12;59.33;100489.84;5041791;28;20266;-61
2022/09/08 05:58:03;;;;;;;6.03;3.88;;;;;;;17.27;58.97;100487.63;5043617;28;20682;-60
2022/09/08 06:00:29;;;;;;;9.35;4.28;;;;;;;17.25;60.20;100487.69;5039657;28;20578;-60
2022/09/08 06:02:57;;;;;;;4.35;3.67;;;;;;;17.47;58.08;100497.59;5040633;28;20224;-62
2022/09/08 06:05:24;;;;;;;7.07;3.95;;;;;;;17.22;58.89;100502.84;5043586;28;20250;-61
2022/09/08 06:07:51;;;;;;;4.15;3.45;;;;;;;17.36;63.47;100500.59;5040314;28;20920;-61
2022/09/08 06:10:18;;;;;;;9.43;4.63;;;;;;;17.31;59.43;100506.06;5038790;28;20228;-60
2022/09/08 06:12:45;;;;;;;5.45;4.03;;;;;;;17.27;59.10;100516.81;5042780;28;20792;-61
2022/09/08 06:15:11;;;;;;;5.18;3.78;;;;;;;17.36;58.82;100503.25;5039870;28;20256;-60
2022/09/08 06:17:39;;;;;;;4.63;4.22;;;;;;;17.13;59.44;100498.69;5036828;28;20236;-60
2022/09/08 06:20:08;;;;;;;4.95;3.90;;;;;;;17.20;59.59;100494.03;5040380;28;20235;-62
2022/09/08 06:22:35;;;;;;;7.88;4.32;;;;;;;17.20;59.01;100491.38;5037062;28;20543;-61
2022/09/08 06:25:01;;;;;;;7.95;4.15;;;;;;;17.24;59.07;100493.06;5040723;28;20722;-61
2022/09/08 06:27:35;;;;;;;5.70;3.72;;;;;;;17.24;59.23;100491.25;5044490;28;20236;-60
2022/09/08 06:30:05;;;;;;;6.55;4.15;;;;;;;17.01;59.28;100502.59;5039819;28;20232;-60
2022/09/08 06:32:35;;;;;;;10.52;3.92;;;;;;;16.96;60.10;100499.22;5045383;28;20592;-61
2022/09/08 06:35:05;;;;;;;9.07;3.97;;;;;;;17.13;60.45;100507.53;5041969;28;20243;-61
2022/09/08 06:37:40;;;;;;;4.95;4.30;;;;;;;17.34;63.39;100510.38;5044947;28;20234;-61
2022/09/08 06:40:12;;;;;;;4.53;3.78;;;;;;;17.20;60.28;100500.25;5048927;28;20234;-60
2022/09/08 06:42:46;;;;;;;7.63;4.50;;;;;;;17.33;59.98;100500.69;5046252;28;20313;-61
2022/09/08 06:45:19;;;;;;;11.98;4.53;;;;;;;17.39;59.21;100500.50;5050716;28;20576;-61
2022/09/08 06:47:53;;;;;;;13.23;5.38;;;;;;;17.41;59.10;100504.00;5049845;28;20721;-61
2022/09/08 06:50:20;;;;;;;7.93;4.78;;;;;;;17.31;60.33;100499.91;5043512;28;20717;-60
2022/09/08 06:52:49;;;;;;;5.28;4.38;;;;;;;17.36;60.10;100497.94;5049843;28;20315;-59
2022/09/08 06:55:23;;;;;;;10.98;4.63;;;;;;;17.38;59.03;100494.34;5042346;28;20916;-60
2022/09/08 06:58:06;;;;;;;7.13;4.03;;;;;;;17.37;60.69;100494.34;5040519;28;20235;-60
2022/09/08 07:00:40;;;;;;;6.45;4.55;;;;;;;17.26;59.11;100491.19;5041255;28;20231;-60
2022/09/08 07:03:16;;;;;;;6.00;4.65;;;;;;;17.22;60.39;100484.25;5044615;28;20317;-60
2022/09/08 07:05:58;;;;;;;5.18;4.22;;;;;;;17.54;60.56;100476.09;5050801;28;20234;-60
2022/09/08 07:08:43;;;;;;;8.10;4.32;;;;;;;17.40;58.89;100468.59;5041299;28;20339;-60
2022/09/08 07:11:20;;;;;;;5.88;4.43;;;;;;;17.62;60.02;100476.72;5034467;28;20271;-60
2022/09/08 07:13:52;;;;;;;7.10;4.30;;;;;;;17.58;59.30;100472.41;5035937;28;20702;-60
2022/09/08 07:16:23;;;;;;;10.07;6.57;;;;;;;17.67;59.48;100467.72;5036099;28;20235;-61
2022/09/08 07:18:53;;;;;;;7.60;4.45;;;;;;;17.71;59.56;100466.69;5037726;28;20229;-62
2022/09/08 07:21:23;;;;;;;8.80;4.13;;;;;;;17.50;59.99;100463.84;5031727;28;20314;-60
2022/09/08 07:23:51;;;;;;;11.32;5.10;;;;;;;17.47;100.00;78206.78;5041755;28;20228;-61
2022/09/08 07:26:21;;;;;;;10.35;5.07;;;;;;;-145.23;100.00;58621.06;5040632;28;20772;-59
2022/09/08 07:28:51;;;;;;;10.35;4.68;;;;;;;-145.23;100.00;58621.06;5032218;28;20232;-60
2022/09/08 07:31:20;;;;;;;8.23;4.38;;;;;;;-145.23;100.00;58621.06;5030122;28;21052;-60
2022/09/08 07:33:49;;;;;;;7.40;4.88;;;;;;;-145.23;100.00;58621.06;5039559;28;20229;-61
2022/09/08 07:36:22;;;;;;;7.88;4.63;;;;;;;-145.23;100.00;58621.06;5046266;28;20228;-60
2022/09/08 07:38:51;;;;;;;6.65;4.28;;;;;;;-145.23;100.00;58621.06;5033195;28;22376;-61
2022/09/08 07:41:20;;;;;;;11.65;5.20;;;;;;;-145.23;100.00;58621.06;5040504;28;20582;-61
2022/09/08 07:43:49;;;;;;;11.48;5.13;;;;;;;-145.23;100.00;58621.06;5042498;28;20389;-61
2022/09/08 07:46:29;;;;;;;5.18;4.40;;;;;;;-145.23;100.00;58621.06;5046794;28;20239;-60
2022/09/08 07:49:01;;;;;;;5.82;5.03;;;;;;;-145.23;100.00;58621.06;5036799;28;20236;-60
2022/09/08 07:51:31;;;;;;;6.43;4.35;;;;;;;-145.23;100.00;58621.06;5029557;28;20224;-60
2022/09/08 07:54:12;;;;;;;5.43;4.45;;;;;;;-145.23;100.00;58621.06;5046775;28;20231;-62
2022/09/08 07:56:40;;;;;;;5.82;4.15;;;;;;;-145.23;100.00;58621.06;5046474;28;20244;-61
2022/09/08 07:59:15;;;;;;;7.78;4.68;;;;;;;-145.23;100.00;58621.06;5037933;28;20294;-61
2022/09/08 08:01:48;;;;;;;8.27;4.80;;;;;;;-145.23;100.00;58621.06;5039782;28;20219;-61
2022/09/08 08:04:31;;;;;;;6.75;4.88;;;;;;;-145.23;100.00;58621.06;5029686;28;20240;-61
2022/09/08 08:06:59;;;;;;;6.80;5.18;;;;;;;-145.23;100.00;58621.06;5037140;28;20499;-62
2022/09/08 08:09:35;;;;;;;5.78;4.85;;;;;;;-145.23;100.00;58621.06;5037484;28;20263;-63
2022/09/08 08:12:07;;;;;;;8.63;5.28;;;;;;;-145.23;100.00;58621.06;5026486;28;20787;-61
2022/09/08 08:14:41;;;;;;;6.07;5.40;;;;;;;-145.23;100.00;58621.06;5039784;28;20290;-61
2022/09/08 08:17:26;;;;;;;8.85;4.90;;;;;;;-145.23;100.00;58621.06;5045589;28;20784;-62
2022/09/08 08:20:03;;;;;;;6.47;5.25;;;;;;;-145.23;100.00;58621.06;5033440;28;20532;-61
2022/09/08 08:22:46;;;;;;;5.60;4.60;;;;;;;-145.23;100.00;58621.06;5038077;28;20239;-61
2022/09/08 08:25:18;;;;;;;7.95;5.38;;;;;;;-145.23;100.00;58621.06;5030381;28;20236;-60
2022/09/08 08:27:50;;;;;;;9.80;5.55;;;;;;;-145.23;100.00;58621.06;5038813;28;20224;-60
2022/09/08 08:30:18;;;;;;;10.30;5.22;;;;;;;-145.23;100.00;58621.06;5041866;28;20297;-60
2022/09/08 08:32:49;;;;;;;8.32;4.95;;;;;;;-145.23;100.00;58621.06;5039713;28;20282;-61
2022/09/08 08:35:21;;;;;;;7.72;4.60;;;;;;;-145.23;100.00;58621.06;5038029;28;20229;-60
2022/09/08 08:37:50;;;;;;;10.35;5.25;;;;;;;-145.23;100.00;58621.06;5046028;28;20227;-62
2022/09/08 08:40:32;;;;;;;6.10;5.05;;;;;;;-145.23;100.00;58621.06;5035255;28;20327;-61
2022/09/08 08:43:11;;;;;;;7.25;5.65;;;;;;;-145.23;100.00;58621.06;5040428;28;20293;-60
2022/09/08 08:45:47;;;;;;;5.07;4.57;;;;;;;-145.23;100.00;58621.06;5049113;28;20231;-62
2022/09/08 08:48:28;;;;;;;9.02;6.25;;;;;;;-145.23;100.00;58621.06;5044976;28;20228;-62
2022/09/08 08:51:04;;;;;;;11.82;7.00;;;;;;;-145.23;100.00;58621.06;5049228;28;20232;-62
2022/09/08 08:53:57;;;;;;;6.20;5.28;;;;;;;-145.23;100.00;58621.06;5047035;28;20247;-61
2022/09/08 08:56:30;;;;;;;9.68;6.47;;;;;;;-145.23;100.00;58621.06;5024525;28;20618;-61
2022/09/08 08:59:13;;;;;;;7.53;6.00;;;;;;;-145.23;100.00;58621.06;5029025;28;20229;-58
2022/09/08 09:01:52;;;;;;;7.35;6.43;;;;;;;-145.23;100.00;58621.06;5036255;28;20235;-61
2022/09/08 09:04:38;;;;;;;10.57;6.78;;;;;;;-145.23;100.00;58621.06;5042450;28;20234;-59
2022/09/08 09:07:32;;;;;;;9.45;5.80;;;;;;;-145.23;100.00;58621.06;5037610;28;20239;-60
2022/09/08 09:10:20;;;;;;;7.50;5.75;;;;;;;-145.23;100.00;58621.06;5039024;28;20224;-59
2022/09/08 09:12:58;;;;;;;7.85;6.32;;;;;;;-145.23;100.00;58621.06;5036745;28;20227;-59
2022/09/08 09:15:45;;;;;;;9.02;6.13;;;;;;;-145.23;100.00;58621.06;5042294;28;20665;-59
2022/09/08 09:18:40;;;;;;;7.82;6.28;;;;;;;-145.23;100.00;58621.06;5038831;28;20266;-58
2022/09/08 09:21:09;;;;;;;8.10;6.28;;;;;;;-145.23;100.00;58621.06;5034877;28;20228;-60
2022/09/08 09:23:40;;;;;;;7.82;5.68;;;;;;;-145.23;100.00;58621.06;5047084;28;20250;-59
2022/09/08 09:26:16;;;;;;;7.82;6.30;;;;;;;-145.23;100.00;58621.06;5033782;28;20266;-60
2022/09/08 09:28:56;;;;;;;8.93;6.57;;;;;;;-145.23;100.00;58621.06;5031918;28;20236;-59
2022/09/08 09:31:37;;;;;;;11.88;5.82;;;;;;;-145.23;100.00;58621.06;5037770;28;20223;-59
2022/09/08 09:34:13;;;;;;;7.68;5.78;;;;;;;-145.23;100.00;58621.06;5044788;28;20227;-62
2022/09/08 09:36:48;;;;;;;7.05;6.10;;;;;;;-145.23;100.00;58621.06;5046708;28;20256;-61
2022/09/08 09:39:35;;;;;;;7.50;6.78;;;;;;;-145.23;100.00;58621.06;5045439;28;20231;-61
2022/09/08 09:42:15;;;;;;;9.35;6.85;;;;;;;-145.23;100.00;58621.06;5033645;28;20341;-59
2022/09/08 09:44:59;;;;;;;9.77;6.28;;;;;;;-145.23;100.00;58621.06;5040379;28;20224;-63
2022/09/08 09:47:39;;;;;;;8.13;6.63;;;;;;;-145.23;100.00;58621.06;5037884;28;20716;-59
2022/09/08 09:50:33;;;;;;;7.88;6.43;;;;;;;-145.23;100.00;58621.06;5038034;28;20232;-57
2022/09/08 09:53:10;;;;;;;7.55;6.40;;;;;;;-145.23;100.00;58621.06;5037701;28;20237;-60
2022/09/08 09:56:00;;;;;;;7.95;6.47;;;;;;;-145.23;100.00;58621.06;5037657;28;20322;-60
2022/09/08 09:58:55;;;;;;;8.52;6.10;;;;;;;-145.23;100.00;58621.06;5034953;28;20219;-57
2022/09/08 10:01:47;;;;;;;7.72;6.85;;;;;;;-145.23;100.00;58621.06;4999258;28;20224;-59
2022/09/08 10:04:48;;;;;;;11.05;7.38;;;;;;;-145.23;100.00;58621.06;5033203;28;20338;-60
2022/09/08 10:07:29;;;;;;;7.35;6.43;;;;;;;-145.23;100.00;58621.06;5042991;28;20233;-60
2022/09/08 10:10:17;;;;;;;12.80;6.78;;;;;;;-145.23;100.00;58621.06;5044667;28;20271;-59
2022/09/08 10:13:22;;;;;;;11.10;7.60;;;;;;;-145.23;100.00;58621.06;5040739;28;20220;-61
2022/09/08 10:16:13;;;;;;;9.07;7.38;;;;;;;-145.23;100.00;58621.06;5038756;28;20224;-58
2022/09/08 10:19:03;;;;;;;9.63;8.32;;;;;;;-145.23;100.00;58621.06;5037763;28;20221;-60
2022/09/08 10:22:02;;;;;;;10.55;8.93;;;;;;;-145.23;100.00;58621.06;5039380;28;20227;-60
2022/09/08 10:25:25;;;;;;;12.88;8.85;;;;;;;-145.23;100.00;58621.06;5034826;28;20290;-60
2022/09/08 10:28:21;;;;;;;16.35;8.65;;;;;;;-145.23;100.00;58621.06;5047142;28;20650;-61
2022/09/08 10:31:24;;;;;;;11.27;9.95;;;;;;;-145.23;100.00;58621.06;5037510;28;20239;-60
2022/09/08 10:34:06;;;;;;;14.75;8.63;;;;;;;-145.23;100.00;58621.06;5041867;28;20230;-60
2022/09/08 10:36:46;;;;;;;10.70;8.88;;;;;;;-145.23;100.00;58621.06;5043345;28;20235;-61
2022/09/08 10:39:25;;;;;;;13.70;9.07;;;;;;;-145.23;100.00;58621.06;5035315;28;20247;-61
2022/09/08 10:42:28;;;;;;;10.02;8.48;;;;;;;-145.23;100.00;58621.06;5040301;28;20228;-61
2022/09/08 10:45:10;;;;;;;13.07;9.52;;;;;;;-145.23;100.00;58621.06;5030657;28;20224;-57
2022/09/08 10:48:06;;;;;;;10.00;9.00;;;;;;;-145.23;100.00;58621.06;5035440;28;20663;-55
2022/09/08 10:50:35;;;;;;;10.35;9.43;;;;;;;15.42;100.00;100454.06;5041261;28;20311;-54
2022/09/08 10:53:38;;;;;;;10.23;8.48;;;;;;;15.15;100.00;100419.47;5041153;28;20646;-53
2022/09/08 10:56:14;;;;;;;13.32;9.23;;;;;;;14.92;100.00;100414.75;5038273;28;20254;-52
2022/09/08 10:59:17;;;;;;;10.52;9.23;;;;;;;14.86;100.00;100398.16;5040782;28;20673;-53
2022/09/08 11:02:10;;;;;;;11.82;9.30;;;;;;;14.77;100.00;100397.47;5038922;28;20307;-54
2022/09/08 11:05:33;;;;;;;10.57;9.02;;;;;;;14.72;100.00;100412.56;5037700;28;20232;-53
2022/09/08 11:08:42;;;;;;;8.30;7.45;;;;;;;14.76;100.00;100408.06;5036150;28;20682;-52
2022/09/08 11:11:40;;;;;;;9.45;8.55;;;;;;;14.78;100.00;100420.34;5039422;28;20231;-53
2022/09/08 11:14:17;;;;;;;12.95;10.82;;;;;;;14.79;100.00;100415.94;5037223;28;20250;-53
2022/09/08 11:16:56;;;;;;;15.65;10.93;;;;;;;14.83;100.00;100417.59;5038485;28;20235;-53
2022/09/08 11:19:35;;;;;;;14.90;10.55;;;;;;;14.92;100.00;100421.81;5042689;28;20237;-52
2022/09/08 11:22:13;;;;;;;10.32;9.43;;;;;;;14.93;100.00;100418.25;5048782;28;20231;-52
2022/09/08 11:24:45;;;;;;;13.50;10.30;;;;;;;14.98;100.00;100419.88;5041080;28;20223;-50
2022/09/08 11:27:18;;;;;;;13.48;10.23;;;;;;;15.05;100.00;100417.94;5041271;28;20249;-52
2022/09/08 11:29:54;;;;;;;13.52;10.95;;;;;;;15.09;100.00;100384.38;5038839;28;20805;-53
2022/09/08 11:32:26;;;;;;;15.23;13.07;;;;;;;15.20;100.00;100390.28;5034116;28;20235;-52
2022/09/08 11:35:19;;;;;;;13.45;11.40;;;;;;;15.20;100.00;100399.06;5037396;28;20255;-53
2022/09/08 11:38:28;;;;;;;14.32;12.23;;;;;;;15.20;100.00;100399.06;5041429;28;20274;-52
2022/09/08 11:41:27;;;;;;;15.63;13.82;;;;;;;15.17;100.00;100414.16;4974878;28;20247;-52
2022/09/08 11:44:15;;;;;;;14.18;10.88;;;;;;;15.15;100.00;100394.78;5037037;28;20339;-52
2022/09/08 11:46:56;;;;;;;16.13;13.35;;;;;;;15.22;100.00;100410.47;5035045;28;20228;-52
2022/09/08 11:49:36;;;;;;;11.93;10.75;;;;;;;15.25;100.00;100399.81;5044656;28;20242;-55
2022/09/08 11:52:21;;;;;;;15.40;12.43;;;;;;;15.25;100.00;100383.94;5049260;28;20251;-54